sensor_id;sensor_type;location;lat;lon;timestamp;P1;durP1;ratioP1;P2;durP2;ratioP2
3211;SDS011;1618;47.056;15.472;2024-02-23T00:00:44;28.90;;;26.70;;
3211;SDS011;1618;47.056;15.472;2024-02-23T00:03:13;31.60;;;29.30;;
3211;SDS011;1618;47.056;15.472;2024-02-23T00:05:45;31.30;;;29.10;;
3211;SDS011;1618;47.056;15.472;2024-02-23T00:08:12;31.10;;;28.90;;
3211;SDS011;1618;47.056;15.472;2024-02-23T00:10:39;30.80;;;28.60;;
3211;SDS011;1618;47.056;15.472;2024-02-23T00:13:08;28.90;;;26.70;;
3211;SDS011;1618;47.056;15.472;2024-02-23T00:15:35;29.40;;;27.20;;
3211;SDS011;1618;47.056;15.472;2024-02-23T00:18:05;29.20;;;27.00;;
3211;SDS011;1618;47.056;15.472;2024-02-23T00:20:33;28.80;;;26.60;;
3211;SDS011;1618;47.056;15.472;2024-02-23T00:23:01;28.70;;;26.50;;
3211;SDS011;1618;47.056;15.472;2024-02-23T00:25:30;28.40;;;26.20;;
3211;SDS011;1618;47.056;15.472;2024-02-23T00:27:57;28.60;;;26.40;;
3211;SDS011;1618;47.056;15.472;2024-02-23T00:30:25;29.00;;;26.80;;
3211;SDS011;1618;47.056;15.472;2024-02-23T00:32:54;28.30;;;26.20;;
3211;SDS011;1618;47.056;15.472;2024-02-23T00:35:24;28.20;;;26.10;;
3211;SDS011;1618;47.056;15.472;2024-02-23T00:37:53;28.50;;;26.40;;
3211;SDS011;1618;47.056;15.472;2024-02-23T00:40:21;28.67;;;26.47;;
3211;SDS011;1618;47.056;15.472;2024-02-23T00:42:49;28.20;;;26.10;;
3211;SDS011;1618;47.056;15.472;2024-02-23T00:45:18;28.20;;;26.10;;
3211;SDS011;1618;47.056;15.472;2024-02-23T00:47:47;28.40;;;26.30;;
3211;SDS011;1618;47.056;15.472;2024-02-23T00:50:14;28.40;;;26.30;;
3211;SDS011;1618;47.056;15.472;2024-02-23T00:52:43;29.33;;;27.13;;
3211;SDS011;1618;47.056;15.472;2024-02-23T00:55:10;27.90;;;25.80;;
3211;SDS011;1618;47.056;15.472;2024-02-23T00:57:38;28.20;;;26.10;;
3211;SDS011;1618;47.056;15.472;2024-02-23T01:00:06;28.20;;;26.20;;
3211;SDS011;1618;47.056;15.472;2024-02-23T01:02:35;28.50;;;26.40;;
3211;SDS011;1618;47.056;15.472;2024-02-23T01:05:04;27.93;;;25.93;;
3211;SDS011;1618;47.056;15.472;2024-02-23T01:07:32;28.00;;;26.00;;
3211;SDS011;1618;47.056;15.472;2024-02-23T01:10:01;27.87;;;25.87;;
3211;SDS011;1618;47.056;15.472;2024-02-23T01:12:29;28.50;;;26.50;;
3211;SDS011;1618;47.056;15.472;2024-02-23T01:14:57;28.80;;;26.70;;
3211;SDS011;1618;47.056;15.472;2024-02-23T01:17:25;29.10;;;27.00;;
3211;SDS011;1618;47.056;15.472;2024-02-23T01:19:54;29.70;;;27.60;;
3211;SDS011;1618;47.056;15.472;2024-02-23T01:22:22;31.63;;;29.43;;
3211;SDS011;1618;47.056;15.472;2024-02-23T01:24:49;33.17;;;30.97;;
3211;SDS011;1618;47.056;15.472;2024-02-23T01:27:18;37.17;;;34.97;;
3211;SDS011;1618;47.056;15.472;2024-02-23T01:29:46;38.10;;;35.80;;
3211;SDS011;1618;47.056;15.472;2024-02-23T01:32:14;39.07;;;36.77;;
3211;SDS011;1618;47.056;15.472;2024-02-23T01:34:43;39.90;;;37.60;;
3211;SDS011;1618;47.056;15.472;2024-02-23T01:37:10;36.17;;;33.87;;
3211;SDS011;1618;47.056;15.472;2024-02-23T01:39:45;34.10;;;31.90;;
3211;SDS011;1618;47.056;15.472;2024-02-23T01:42:12;34.60;;;32.40;;
3211;SDS011;1618;47.056;15.472;2024-02-23T01:44:43;34.40;;;32.27;;
3211;SDS011;1618;47.056;15.472;2024-02-23T01:47:10;33.57;;;31.47;;
3211;SDS011;1618;47.056;15.472;2024-02-23T01:49:38;32.50;;;30.50;;
3211;SDS011;1618;47.056;15.472;2024-02-23T01:52:05;33.10;;;31.10;;
3211;SDS011;1618;47.056;15.472;2024-02-23T01:54:33;32.63;;;30.63;;
3211;SDS011;1618;47.056;15.472;2024-02-23T01:57:01;32.00;;;30.10;;
3211;SDS011;1618;47.056;15.472;2024-02-23T01:59:28;31.90;;;30.00;;
3211;SDS011;1618;47.056;15.472;2024-02-23T02:01:59;31.90;;;30.00;;
3211;SDS011;1618;47.056;15.472;2024-02-23T02:04:26;31.30;;;29.40;;
3211;SDS011;1618;47.056;15.472;2024-02-23T02:06:54;31.23;;;29.43;;
3211;SDS011;1618;47.056;15.472;2024-02-23T02:09:21;30.63;;;28.83;;
3211;SDS011;1618;47.056;15.472;2024-02-23T02:11:48;29.77;;;28.07;;
3211;SDS011;1618;47.056;15.472;2024-02-23T02:14:16;29.13;;;27.43;;
3211;SDS011;1618;47.056;15.472;2024-02-23T02:16:44;28.50;;;26.90;;
3211;SDS011;1618;47.056;15.472;2024-02-23T02:19:13;27.00;;;25.50;;
3211;SDS011;1618;47.056;15.472;2024-02-23T02:21:43;26.97;;;25.47;;
3211;SDS011;1618;47.056;15.472;2024-02-23T02:24:11;27.77;;;26.27;;
3211;SDS011;1618;47.056;15.472;2024-02-23T02:26:39;27.37;;;25.87;;
3211;SDS011;1618;47.056;15.472;2024-02-23T02:29:08;26.30;;;24.90;;
3211;SDS011;1618;47.056;15.472;2024-02-23T02:31:35;26.33;;;24.93;;
3211;SDS011;1618;47.056;15.472;2024-02-23T02:34:08;25.63;;;24.23;;
3211;SDS011;1618;47.056;15.472;2024-02-23T02:36:40;25.30;;;24.00;;
3211;SDS011;1618;47.056;15.472;2024-02-23T02:39:08;25.53;;;24.17;;
3211;SDS011;1618;47.056;15.472;2024-02-23T02:41:37;24.70;;;23.40;;
3211;SDS011;1618;47.056;15.472;2024-02-23T02:44:04;24.30;;;23.00;;
3211;SDS011;1618;47.056;15.472;2024-02-23T02:46:32;23.80;;;22.50;;
3211;SDS011;1618;47.056;15.472;2024-02-23T02:49:00;26.57;;;25.27;;
3211;SDS011;1618;47.056;15.472;2024-02-23T02:51:29;26.87;;;25.47;;
3211;SDS011;1618;47.056;15.472;2024-02-23T02:53:58;26.30;;;25.00;;
3211;SDS011;1618;47.056;15.472;2024-02-23T02:56:26;25.80;;;24.50;;
3211;SDS011;1618;47.056;15.472;2024-02-23T02:58:53;24.00;;;22.70;;
3211;SDS011;1618;47.056;15.472;2024-02-23T03:01:22;23.67;;;22.47;;
3211;SDS011;1618;47.056;15.472;2024-02-23T03:03:49;23.27;;;22.07;;
3211;SDS011;1618;47.056;15.472;2024-02-23T03:06:18;23.07;;;21.87;;
3211;SDS011;1618;47.056;15.472;2024-02-23T03:08:45;23.40;;;22.20;;
3211;SDS011;1618;47.056;15.472;2024-02-23T03:11:14;23.07;;;21.87;;
3211;SDS011;1618;47.056;15.472;2024-02-23T03:13:42;23.30;;;22.10;;
3211;SDS011;1618;47.056;15.472;2024-02-23T03:16:14;22.87;;;21.67;;
3211;SDS011;1618;47.056;15.472;2024-02-23T03:18:44;22.70;;;21.60;;
3211;SDS011;1618;47.056;15.472;2024-02-23T03:21:12;23.50;;;22.30;;
3211;SDS011;1618;47.056;15.472;2024-02-23T03:23:40;23.70;;;22.50;;
3211;SDS011;1618;47.056;15.472;2024-02-23T03:26:07;23.73;;;22.53;;
3211;SDS011;1618;47.056;15.472;2024-02-23T03:28:36;23.93;;;22.73;;
3211;SDS011;1618;47.056;15.472;2024-02-23T03:31:05;24.10;;;22.83;;
3211;SDS011;1618;47.056;15.472;2024-02-23T03:33:33;25.53;;;24.23;;
3211;SDS011;1618;47.056;15.472;2024-02-23T03:36:00;25.00;;;23.70;;
3211;SDS011;1618;47.056;15.472;2024-02-23T03:38:27;25.00;;;23.70;;
3211;SDS011;1618;47.056;15.472;2024-02-23T03:40:56;24.57;;;23.27;;
3211;SDS011;1618;47.056;15.472;2024-02-23T03:43:23;24.50;;;23.20;;
3211;SDS011;1618;47.056;15.472;2024-02-23T03:45:52;24.60;;;23.30;;
3211;SDS011;1618;47.056;15.472;2024-02-23T03:48:20;24.33;;;23.13;;
3211;SDS011;1618;47.056;15.472;2024-02-23T03:50:47;24.20;;;23.00;;
3211;SDS011;1618;47.056;15.472;2024-02-23T03:53:15;24.53;;;23.30;;
3211;SDS011;1618;47.056;15.472;2024-02-23T03:55:43;24.30;;;23.00;;
3211;SDS011;1618;47.056;15.472;2024-02-23T03:58:10;24.20;;;23.00;;
3211;SDS011;1618;47.056;15.472;2024-02-23T04:00:38;23.33;;;22.13;;
3211;SDS011;1618;47.056;15.472;2024-02-23T04:03:08;23.73;;;22.53;;
3211;SDS011;1618;47.056;15.472;2024-02-23T04:05:36;24.37;;;23.07;;
3211;SDS011;1618;47.056;15.472;2024-02-23T04:08:03;24.03;;;22.73;;
3211;SDS011;1618;47.056;15.472;2024-02-23T04:10:31;24.30;;;23.00;;
3211;SDS011;1618;47.056;15.472;2024-02-23T04:12:59;25.30;;;24.10;;
3211;SDS011;1618;47.056;15.472;2024-02-23T04:15:27;25.20;;;24.00;;
3211;SDS011;1618;47.056;15.472;2024-02-23T04:17:55;24.13;;;22.93;;
3211;SDS011;1618;47.056;15.472;2024-02-23T04:20:24;24.20;;;23.00;;
3211;SDS011;1618;47.056;15.472;2024-02-23T04:22:51;23.17;;;21.97;;
3211;SDS011;1618;47.056;15.472;2024-02-23T04:25:18;23.93;;;22.73;;
3211;SDS011;1618;47.056;15.472;2024-02-23T04:27:45;23.60;;;22.40;;
3211;SDS011;1618;47.056;15.472;2024-02-23T04:30:13;24.07;;;22.77;;
3211;SDS011;1618;47.056;15.472;2024-02-23T04:32:40;24.03;;;22.83;;
3211;SDS011;1618;47.056;15.472;2024-02-23T04:35:10;23.60;;;22.40;;
3211;SDS011;1618;47.056;15.472;2024-02-23T04:37:41;24.30;;;23.00;;
3211;SDS011;1618;47.056;15.472;2024-02-23T04:40:10;24.00;;;22.80;;
3211;SDS011;1618;47.056;15.472;2024-02-23T04:42:38;24.70;;;23.40;;
3211;SDS011;1618;47.056;15.472;2024-02-23T04:45:06;23.90;;;22.70;;
3211;SDS011;1618;47.056;15.472;2024-02-23T04:47:34;23.30;;;22.10;;
3211;SDS011;1618;47.056;15.472;2024-02-23T04:50:02;23.87;;;22.67;;
3211;SDS011;1618;47.056;15.472;2024-02-23T04:52:31;23.40;;;22.20;;
3211;SDS011;1618;47.056;15.472;2024-02-23T04:55:01;23.13;;;21.93;;
3211;SDS011;1618;47.056;15.472;2024-02-23T04:57:29;22.30;;;21.20;;
3211;SDS011;1618;47.056;15.472;2024-02-23T04:59:58;22.90;;;21.80;;
3211;SDS011;1618;47.056;15.472;2024-02-23T05:02:26;22.90;;;21.80;;
3211;SDS011;1618;47.056;15.472;2024-02-23T05:04:59;21.85;;;20.75;;
3211;SDS011;1618;47.056;15.472;2024-02-23T05:07:26;23.30;;;22.10;;
3211;SDS011;1618;47.056;15.472;2024-02-23T05:09:53;22.10;;;21.00;;
3211;SDS011;1618;47.056;15.472;2024-02-23T05:12:22;22.10;;;21.00;;
3211;SDS011;1618;47.056;15.472;2024-02-23T05:14:49;21.90;;;20.80;;
3211;SDS011;1618;47.056;15.472;2024-02-23T05:17:18;22.40;;;21.30;;
3211;SDS011;1618;47.056;15.472;2024-02-23T05:19:46;22.60;;;21.50;;
3211;SDS011;1618;47.056;15.472;2024-02-23T05:22:13;23.10;;;21.90;;
3211;SDS011;1618;47.056;15.472;2024-02-23T05:24:41;22.67;;;21.50;;
3211;SDS011;1618;47.056;15.472;2024-02-23T05:27:17;22.10;;;21.00;;
3211;SDS011;1618;47.056;15.472;2024-02-23T05:29:46;21.60;;;20.50;;
3211;SDS011;1618;47.056;15.472;2024-02-23T05:32:16;20.80;;;19.80;;
3211;SDS011;1618;47.056;15.472;2024-02-23T05:34:44;22.23;;;21.23;;
3211;SDS011;1618;47.056;15.472;2024-02-23T05:37:11;21.23;;;20.23;;
3211;SDS011;1618;47.056;15.472;2024-02-23T05:39:38;20.90;;;19.97;;
3211;SDS011;1618;47.056;15.472;2024-02-23T05:42:06;20.97;;;19.97;;
3211;SDS011;1618;47.056;15.472;2024-02-23T05:44:33;22.30;;;21.30;;
3211;SDS011;1618;47.056;15.472;2024-02-23T05:47:02;21.23;;;20.23;;
3211;SDS011;1618;47.056;15.472;2024-02-23T05:49:30;21.70;;;20.60;;
3211;SDS011;1618;47.056;15.472;2024-02-23T05:51:57;21.87;;;20.77;;
3211;SDS011;1618;47.056;15.472;2024-02-23T05:54:24;21.60;;;20.60;;
3211;SDS011;1618;47.056;15.472;2024-02-23T05:56:51;22.30;;;21.20;;
3211;SDS011;1618;47.056;15.472;2024-02-23T05:59:19;23.03;;;21.93;;
3211;SDS011;1618;47.056;15.472;2024-02-23T06:01:48;22.80;;;21.70;;
3211;SDS011;1618;47.056;15.472;2024-02-23T06:04:18;22.80;;;21.70;;
3211;SDS011;1618;47.056;15.472;2024-02-23T06:06:46;22.53;;;21.43;;
3211;SDS011;1618;47.056;15.472;2024-02-23T06:09:13;22.20;;;21.20;;
3211;SDS011;1618;47.056;15.472;2024-02-23T06:11:40;23.07;;;21.97;;
3211;SDS011;1618;47.056;15.472;2024-02-23T06:14:08;20.83;;;19.83;;
3211;SDS011;1618;47.056;15.472;2024-02-23T06:16:37;19.60;;;18.70;;
3211;SDS011;1618;47.056;15.472;2024-02-23T06:19:05;21.80;;;20.80;;
3211;SDS011;1618;47.056;15.472;2024-02-23T06:21:34;20.97;;;20.07;;
3211;SDS011;1618;47.056;15.472;2024-02-23T06:24:03;21.50;;;20.50;;
3211;SDS011;1618;47.056;15.472;2024-02-23T06:26:34;19.70;;;18.80;;
3211;SDS011;1618;47.056;15.472;2024-02-23T06:29:02;18.40;;;17.60;;
3211;SDS011;1618;47.056;15.472;2024-02-23T06:31:33;19.20;;;18.37;;
3211;SDS011;1618;47.056;15.472;2024-02-23T06:34:00;19.03;;;18.23;;
3211;SDS011;1618;47.056;15.472;2024-02-23T06:36:27;19.80;;;18.90;;
3211;SDS011;1618;47.056;15.472;2024-02-23T06:39:00;20.20;;;19.30;;
3211;SDS011;1618;47.056;15.472;2024-02-23T06:41:28;19.20;;;18.30;;
3211;SDS011;1618;47.056;15.472;2024-02-23T06:43:57;20.10;;;19.20;;
3211;SDS011;1618;47.056;15.472;2024-02-23T06:46:24;20.60;;;19.60;;
3211;SDS011;1618;47.056;15.472;2024-02-23T06:48:52;21.13;;;20.13;;
3211;SDS011;1618;47.056;15.472;2024-02-23T06:51:20;20.00;;;19.10;;
3211;SDS011;1618;47.056;15.472;2024-02-23T06:53:48;19.90;;;19.00;;
3211;SDS011;1618;47.056;15.472;2024-02-23T06:56:17;20.80;;;19.90;;
3211;SDS011;1618;47.056;15.472;2024-02-23T06:58:45;20.37;;;19.47;;
3211;SDS011;1618;47.056;15.472;2024-02-23T07:01:16;20.20;;;19.30;;
3211;SDS011;1618;47.056;15.472;2024-02-23T07:03:45;20.60;;;19.70;;
3211;SDS011;1618;47.056;15.472;2024-02-23T07:06:17;20.37;;;19.47;;
3211;SDS011;1618;47.056;15.472;2024-02-23T07:08:45;20.07;;;19.17;;
3211;SDS011;1618;47.056;15.472;2024-02-23T07:11:13;19.90;;;19.00;;
3211;SDS011;1618;47.056;15.472;2024-02-23T07:13:43;19.07;;;18.27;;
3211;SDS011;1618;47.056;15.472;2024-02-23T07:16:16;19.20;;;18.30;;
3211;SDS011;1618;47.056;15.472;2024-02-23T07:18:43;18.50;;;17.70;;
3211;SDS011;1618;47.056;15.472;2024-02-23T07:21:10;17.80;;;17.00;;
3211;SDS011;1618;47.056;15.472;2024-02-23T07:23:38;18.00;;;17.20;;
3211;SDS011;1618;47.056;15.472;2024-02-23T07:26:05;19.47;;;18.57;;
3211;SDS011;1618;47.056;15.472;2024-02-23T07:28:32;18.30;;;17.50;;
3211;SDS011;1618;47.056;15.472;2024-02-23T07:31:01;19.47;;;18.57;;
3211;SDS011;1618;47.056;15.472;2024-02-23T07:33:30;20.00;;;19.10;;
3211;SDS011;1618;47.056;15.472;2024-02-23T07:35:58;18.80;;;18.00;;
3211;SDS011;1618;47.056;15.472;2024-02-23T07:38:25;19.00;;;18.20;;
3211;SDS011;1618;47.056;15.472;2024-02-23T07:40:54;19.33;;;18.43;;
3211;SDS011;1618;47.056;15.472;2024-02-23T07:43:24;20.33;;;19.43;;
3211;SDS011;1618;47.056;15.472;2024-02-23T07:45:54;20.33;;;19.43;;
3211;SDS011;1618;47.056;15.472;2024-02-23T07:48:24;20.47;;;19.57;;
3211;SDS011;1618;47.056;15.472;2024-02-23T07:50:52;20.23;;;19.33;;
3211;SDS011;1618;47.056;15.472;2024-02-23T07:53:20;19.90;;;19.00;;
3211;SDS011;1618;47.056;15.472;2024-02-23T07:55:48;20.30;;;19.40;;
3211;SDS011;1618;47.056;15.472;2024-02-23T07:58:16;20.90;;;19.90;;
3211;SDS011;1618;47.056;15.472;2024-02-23T08:00:44;22.10;;;21.10;;
3211;SDS011;1618;47.056;15.472;2024-02-23T08:03:11;21.83;;;20.83;;
3211;SDS011;1618;47.056;15.472;2024-02-23T08:05:42;21.90;;;20.90;;
3211;SDS011;1618;47.056;15.472;2024-02-23T08:08:10;24.70;;;23.53;;
3211;SDS011;1618;47.056;15.472;2024-02-23T08:10:39;22.30;;;21.30;;
3211;SDS011;1618;47.056;15.472;2024-02-23T08:13:07;22.23;;;21.23;;
3211;SDS011;1618;47.056;15.472;2024-02-23T08:15:36;22.63;;;21.60;;
3211;SDS011;1618;47.056;15.472;2024-02-23T08:18:04;22.27;;;21.27;;
3211;SDS011;1618;47.056;15.472;2024-02-23T08:20:36;22.20;;;21.20;;
3211;SDS011;1618;47.056;15.472;2024-02-23T08:23:08;22.30;;;21.30;;
3211;SDS011;1618;47.056;15.472;2024-02-23T08:25:36;23.03;;;21.97;;
3211;SDS011;1618;47.056;15.472;2024-02-23T08:28:04;21.80;;;20.80;;
3211;SDS011;1618;47.056;15.472;2024-02-23T08:30:32;22.20;;;21.20;;
3211;SDS011;1618;47.056;15.472;2024-02-23T08:33:00;23.80;;;22.70;;
3211;SDS011;1618;47.056;15.472;2024-02-23T08:35:31;24.63;;;23.43;;
3211;SDS011;1618;47.056;15.472;2024-02-23T08:38:00;25.43;;;24.23;;
3211;SDS011;1618;47.056;15.472;2024-02-23T08:40:30;26.17;;;24.87;;
3211;SDS011;1618;47.056;15.472;2024-02-23T08:42:58;25.60;;;24.30;;
3211;SDS011;1618;47.056;15.472;2024-02-23T08:45:25;26.20;;;24.90;;
3211;SDS011;1618;47.056;15.472;2024-02-23T08:47:54;25.47;;;24.27;;
3211;SDS011;1618;47.056;15.472;2024-02-23T08:50:22;27.13;;;25.83;;
3211;SDS011;1618;47.056;15.472;2024-02-23T08:52:49;28.57;;;27.17;;
3211;SDS011;1618;47.056;15.472;2024-02-23T08:55:18;28.13;;;26.73;;
3211;SDS011;1618;47.056;15.472;2024-02-23T08:57:49;29.10;;;27.60;;
3211;SDS011;1618;47.056;15.472;2024-02-23T09:00:17;28.37;;;26.97;;
3211;SDS011;1618;47.056;15.472;2024-02-23T09:02:46;29.50;;;28.00;;
3211;SDS011;1618;47.056;15.472;2024-02-23T09:05:16;28.70;;;27.20;;
3211;SDS011;1618;47.056;15.472;2024-02-23T09:07:44;29.60;;;28.10;;
3211;SDS011;1618;47.056;15.472;2024-02-23T09:10:11;29.10;;;27.60;;
3211;SDS011;1618;47.056;15.472;2024-02-23T09:12:40;28.10;;;26.70;;
3211;SDS011;1618;47.056;15.472;2024-02-23T09:15:09;28.87;;;27.47;;
3211;SDS011;1618;47.056;15.472;2024-02-23T09:17:36;28.87;;;27.47;;
3211;SDS011;1618;47.056;15.472;2024-02-23T09:20:04;29.90;;;28.40;;
3211;SDS011;1618;47.056;15.472;2024-02-23T09:22:33;30.30;;;28.80;;
3211;SDS011;1618;47.056;15.472;2024-02-23T09:25:03;30.13;;;28.60;;
3211;SDS011;1618;47.056;15.472;2024-02-23T09:27:31;32.00;;;30.30;;
3211;SDS011;1618;47.056;15.472;2024-02-23T09:30:01;31.60;;;30.00;;
3211;SDS011;1618;47.056;15.472;2024-02-23T09:32:31;30.80;;;29.20;;
3211;SDS011;1618;47.056;15.472;2024-02-23T09:34:59;30.93;;;29.33;;
3211;SDS011;1618;47.056;15.472;2024-02-23T09:37:28;30.20;;;28.60;;
3211;SDS011;1618;47.056;15.472;2024-02-23T09:39:57;30.50;;;28.90;;
3211;SDS011;1618;47.056;15.472;2024-02-23T09:42:25;30.73;;;29.10;;
3211;SDS011;1618;47.056;15.472;2024-02-23T09:44:57;30.70;;;29.10;;
3211;SDS011;1618;47.056;15.472;2024-02-23T09:47:27;30.80;;;29.20;;
3211;SDS011;1618;47.056;15.472;2024-02-23T09:49:55;29.97;;;28.47;;
3211;SDS011;1618;47.056;15.472;2024-02-23T09:52:23;29.47;;;27.97;;
3211;SDS011;1618;47.056;15.472;2024-02-23T09:54:50;30.03;;;28.43;;
3211;SDS011;1618;47.056;15.472;2024-02-23T09:57:19;30.37;;;28.77;;
3211;SDS011;1618;47.056;15.472;2024-02-23T09:59:48;30.80;;;29.20;;
3211;SDS011;1618;47.056;15.472;2024-02-23T10:02:17;29.53;;;28.03;;
3211;SDS011;1618;47.056;15.472;2024-02-23T10:04:45;30.60;;;29.00;;
3211;SDS011;1618;47.056;15.472;2024-02-23T10:07:15;30.70;;;29.10;;
3211;SDS011;1618;47.056;15.472;2024-02-23T10:09:42;31.00;;;29.30;;
3211;SDS011;1618;47.056;15.472;2024-02-23T10:12:11;31.77;;;30.07;;
3211;SDS011;1618;47.056;15.472;2024-02-23T10:14:38;31.60;;;29.93;;
3211;SDS011;1618;47.056;15.472;2024-02-23T10:17:09;31.60;;;29.90;;
3211;SDS011;1618;47.056;15.472;2024-02-23T10:19:37;31.33;;;29.63;;
3211;SDS011;1618;47.056;15.472;2024-02-23T10:22:05;31.53;;;29.83;;
3211;SDS011;1618;47.056;15.472;2024-02-23T10:24:34;32.43;;;30.73;;
3211;SDS011;1618;47.056;15.472;2024-02-23T10:27:03;31.30;;;29.70;;
3211;SDS011;1618;47.056;15.472;2024-02-23T10:29:33;30.80;;;29.20;;
3211;SDS011;1618;47.056;15.472;2024-02-23T10:32:00;31.20;;;29.60;;
3211;SDS011;1618;47.056;15.472;2024-02-23T10:34:28;30.20;;;28.60;;
3211;SDS011;1618;47.056;15.472;2024-02-23T10:36:57;29.97;;;28.37;;
3211;SDS011;1618;47.056;15.472;2024-02-23T10:39:25;29.13;;;27.63;;
3211;SDS011;1618;47.056;15.472;2024-02-23T10:42:00;29.67;;;28.07;;
3211;SDS011;1618;47.056;15.472;2024-02-23T10:44:31;29.87;;;28.33;;
3211;SDS011;1618;47.056;15.472;2024-02-23T10:46:58;29.43;;;27.93;;
3211;SDS011;1618;47.056;15.472;2024-02-23T10:49:28;30.00;;;28.40;;
3211;SDS011;1618;47.056;15.472;2024-02-23T10:52:10;30.43;;;28.93;;
3211;SDS011;1618;47.056;15.472;2024-02-23T10:54:41;29.73;;;28.23;;
3211;SDS011;1618;47.056;15.472;2024-02-23T10:57:10;28.50;;;27.10;;
3211;SDS011;1618;47.056;15.472;2024-02-23T10:59:39;28.70;;;27.30;;
3211;SDS011;1618;47.056;15.472;2024-02-23T11:02:08;27.40;;;26.00;;
3211;SDS011;1618;47.056;15.472;2024-02-23T11:04:37;28.03;;;26.63;;
3211;SDS011;1618;47.056;15.472;2024-02-23T11:07:12;28.03;;;26.63;;
3211;SDS011;1618;47.056;15.472;2024-02-23T11:09:40;28.03;;;26.63;;
3211;SDS011;1618;47.056;15.472;2024-02-23T11:12:11;26.40;;;25.10;;
3211;SDS011;1618;47.056;15.472;2024-02-23T11:14:49;26.30;;;25.00;;
3211;SDS011;1618;47.056;15.472;2024-02-23T11:17:17;27.50;;;26.20;;
3211;SDS011;1618;47.056;15.472;2024-02-23T11:19:45;27.87;;;26.53;;
3211;SDS011;1618;47.056;15.472;2024-02-23T11:22:14;25.87;;;24.67;;
3211;SDS011;1618;47.056;15.472;2024-02-23T11:24:43;25.97;;;24.77;;
3211;SDS011;1618;47.056;15.472;2024-02-23T11:27:15;27.67;;;26.37;;
3211;SDS011;1618;47.056;15.472;2024-02-23T11:29:45;27.37;;;26.07;;
3211;SDS011;1618;47.056;15.472;2024-02-23T11:32:12;27.83;;;26.43;;
3211;SDS011;1618;47.056;15.472;2024-02-23T11:34:40;28.60;;;27.20;;
3211;SDS011;1618;47.056;15.472;2024-02-23T11:37:11;30.10;;;28.60;;
3211;SDS011;1618;47.056;15.472;2024-02-23T11:39:45;28.70;;;27.30;;
3211;SDS011;1618;47.056;15.472;2024-02-23T11:42:14;29.40;;;27.90;;
3211;SDS011;1618;47.056;15.472;2024-02-23T11:44:42;31.20;;;29.60;;
3211;SDS011;1618;47.056;15.472;2024-02-23T11:47:10;31.60;;;30.00;;
3211;SDS011;1618;47.056;15.472;2024-02-23T11:49:39;31.30;;;29.70;;
3211;SDS011;1618;47.056;15.472;2024-02-23T11:52:07;29.03;;;27.57;;
3211;SDS011;1618;47.056;15.472;2024-02-23T11:54:34;28.90;;;27.40;;
3211;SDS011;1618;47.056;15.472;2024-02-23T11:57:02;28.23;;;26.73;;
3211;SDS011;1618;47.056;15.472;2024-02-23T11:59:32;30.47;;;28.87;;
3211;SDS011;1618;47.056;15.472;2024-02-23T12:01:59;32.57;;;30.77;;
3211;SDS011;1618;47.056;15.472;2024-02-23T12:04:29;33.30;;;31.50;;
3211;SDS011;1618;47.056;15.472;2024-02-23T12:06:57;32.27;;;30.57;;
3211;SDS011;1618;47.056;15.472;2024-02-23T12:09:25;33.00;;;31.30;;
3211;SDS011;1618;47.056;15.472;2024-02-23T12:11:54;33.73;;;31.93;;
3211;SDS011;1618;47.056;15.472;2024-02-23T12:14:21;34.83;;;32.93;;
3211;SDS011;1618;47.056;15.472;2024-02-23T12:16:52;34.70;;;32.80;;
3211;SDS011;1618;47.056;15.472;2024-02-23T12:19:20;34.40;;;32.50;;
3211;SDS011;1618;47.056;15.472;2024-02-23T12:21:50;34.40;;;32.50;;
3211;SDS011;1618;47.056;15.472;2024-02-23T12:24:18;33.10;;;31.30;;
3211;SDS011;1618;47.056;15.472;2024-02-23T12:26:45;33.97;;;32.07;;
3211;SDS011;1618;47.056;15.472;2024-02-23T12:29:12;34.03;;;32.13;;
3211;SDS011;1618;47.056;15.472;2024-02-23T12:31:39;33.60;;;31.70;;
3211;SDS011;1618;47.056;15.472;2024-02-23T12:34:12;33.00;;;31.20;;
3211;SDS011;1618;47.056;15.472;2024-02-23T12:36:40;33.80;;;32.00;;
3211;SDS011;1618;47.056;15.472;2024-02-23T12:39:10;31.80;;;30.10;;
3211;SDS011;1618;47.056;15.472;2024-02-23T12:41:38;32.03;;;30.33;;
3211;SDS011;1618;47.056;15.472;2024-02-23T12:44:07;33.40;;;31.60;;
3211;SDS011;1618;47.056;15.472;2024-02-23T12:46:35;33.70;;;31.80;;
3211;SDS011;1618;47.056;15.472;2024-02-23T12:49:03;32.97;;;31.17;;
3211;SDS011;1618;47.056;15.472;2024-02-23T12:51:32;33.23;;;31.33;;
3211;SDS011;1618;47.056;15.472;2024-02-23T12:53:59;33.13;;;31.33;;
3211;SDS011;1618;47.056;15.472;2024-02-23T12:56:28;32.50;;;30.70;;
3211;SDS011;1618;47.056;15.472;2024-02-23T12:58:56;31.20;;;29.50;;
3211;SDS011;1618;47.056;15.472;2024-02-23T13:01:24;32.90;;;31.10;;
3211;SDS011;1618;47.056;15.472;2024-02-23T13:03:52;33.37;;;31.57;;
3211;SDS011;1618;47.056;15.472;2024-02-23T13:06:20;32.77;;;30.97;;
3211;SDS011;1618;47.056;15.472;2024-02-23T13:08:50;33.37;;;31.57;;
3211;SDS011;1618;47.056;15.472;2024-02-23T13:11:19;33.40;;;31.60;;
3211;SDS011;1618;47.056;15.472;2024-02-23T13:13:46;34.20;;;32.30;;
3211;SDS011;1618;47.056;15.472;2024-02-23T13:16:13;33.77;;;31.87;;
3211;SDS011;1618;47.056;15.472;2024-02-23T13:18:42;33.87;;;32.07;;
3211;SDS011;1618;47.056;15.472;2024-02-23T13:21:12;34.03;;;32.13;;
3211;SDS011;1618;47.056;15.472;2024-02-23T13:23:40;35.33;;;33.33;;
3211;SDS011;1618;47.056;15.472;2024-02-23T13:26:09;35.60;;;33.60;;
3211;SDS011;1618;47.056;15.472;2024-02-23T13:28:39;35.40;;;33.40;;
3211;SDS011;1618;47.056;15.472;2024-02-23T13:31:07;35.37;;;33.37;;
3211;SDS011;1618;47.056;15.472;2024-02-23T13:33:36;33.90;;;32.00;;
3211;SDS011;1618;47.056;15.472;2024-02-23T13:36:04;33.70;;;31.80;;
3211;SDS011;1618;47.056;15.472;2024-02-23T13:38:33;33.87;;;31.97;;
3211;SDS011;1618;47.056;15.472;2024-02-23T13:41:03;34.07;;;32.17;;
3211;SDS011;1618;47.056;15.472;2024-02-23T13:43:32;33.03;;;31.23;;
3211;SDS011;1618;47.056;15.472;2024-02-23T13:45:59;32.57;;;30.87;;
3211;SDS011;1618;47.056;15.472;2024-02-23T13:48:31;32.63;;;30.83;;
3211;SDS011;1618;47.056;15.472;2024-02-23T13:50:59;32.20;;;30.50;;
3211;SDS011;1618;47.056;15.472;2024-02-23T13:53:29;31.30;;;29.60;;
3211;SDS011;1618;47.056;15.472;2024-02-23T13:55:59;30.90;;;29.30;;
3211;SDS011;1618;47.056;15.472;2024-02-23T13:58:27;30.90;;;29.20;;
3211;SDS011;1618;47.056;15.472;2024-02-23T14:00:57;30.37;;;28.77;;
3211;SDS011;1618;47.056;15.472;2024-02-23T14:03:26;31.57;;;29.87;;
3211;SDS011;1618;47.056;15.472;2024-02-23T14:05:55;31.40;;;29.70;;
3211;SDS011;1618;47.056;15.472;2024-02-23T14:08:24;31.47;;;29.77;;
3211;SDS011;1618;47.056;15.472;2024-02-23T14:10:52;31.43;;;29.73;;
3211;SDS011;1618;47.056;15.472;2024-02-23T14:13:20;32.30;;;30.50;;
3211;SDS011;1618;47.056;15.472;2024-02-23T14:15:52;33.43;;;31.53;;
3211;SDS011;1618;47.056;15.472;2024-02-23T14:18:23;32.20;;;30.40;;
3211;SDS011;1618;47.056;15.472;2024-02-23T14:20:51;31.97;;;30.17;;
3211;SDS011;1618;47.056;15.472;2024-02-23T14:23:20;31.90;;;30.10;;
3211;SDS011;1618;47.056;15.472;2024-02-23T14:25:48;32.53;;;30.73;;
3211;SDS011;1618;47.056;15.472;2024-02-23T14:28:17;31.90;;;30.10;;
3211;SDS011;1618;47.056;15.472;2024-02-23T14:30:44;32.43;;;30.63;;
3211;SDS011;1618;47.056;15.472;2024-02-23T14:33:11;33.37;;;31.47;;
3211;SDS011;1618;47.056;15.472;2024-02-23T14:35:40;32.87;;;30.97;;
3211;SDS011;1618;47.056;15.472;2024-02-23T14:38:08;32.90;;;31.00;;
3211;SDS011;1618;47.056;15.472;2024-02-23T14:40:35;32.50;;;30.70;;